Time;durP1;ratioP1;P1;durP2;ratioP2;P2;SDS_P1;SDS_P2;PMS_P1;PMS_P2;Temp;Humidity;BMP_temperature;BMP_pressure;BME280_temperature;BME280_humidity;BME280_pressure;Samples;Min_cycle;Max_cycle;Signal;HPM_P1;HPM_P2
2021/06/12 00:00:52;;;;;;;4.93;3.28;;;;;;;15.45;56.11;100005.67;153987;1101;103215;-77
2021/06/12 00:03:57;;;;;;;4.48;3.78;;;;;;;15.43;56.14;100007.72;153947;1097;103200;-78
2021/06/12 00:07:01;;;;;;;4.53;3.63;;;;;;;15.41;55.98;100001.70;154024;1101;103192;-81
2021/06/12 00:10:09;;;;;;;4.73;3.95;;;;;;;15.37;56.27;100008.49;154003;1101;103195;-79
2021/06/12 00:13:14;;;;;;;6.10;4.03;;;;;;;15.34;56.10;99998.11;154061;1101;103488;-79
2021/06/12 00:16:19;;;;;;;4.73;3.80;;;;;;;15.33;55.90;100002.66;153949;1095;103136;-79
2021/06/12 00:19:24;;;;;;;5.47;4.00;;;;;;;15.30;56.35;99998.51;153966;1101;103254;-77
2021/06/12 00:22:28;;;;;;;6.10;3.83;;;;;;;15.25;56.12;99994.72;154033;1095;103152;-78
2021/06/12 00:25:33;;;;;;;5.73;4.37;;;;;;;15.19;56.27;99995.48;153987;1101;103114;-77
2021/06/12 00:28:37;;;;;;;5.75;4.30;;;;;;;15.15;56.28;99994.20;154034;1101;103187;-76
2021/06/12 00:31:42;;;;;;;5.63;4.50;;;;;;;15.12;56.40;99990.84;153936;1093;103103;-78
2021/06/12 00:34:46;;;;;;;6.77;4.20;;;;;;;15.10;56.66;99992.89;153933;1093;103295;-76
2021/06/12 00:37:51;;;;;;;7.00;4.13;;;;;;;15.09;56.42;99990.42;153971;1101;103202;-78
2021/06/12 00:40:56;;;;;;;5.23;4.13;;;;;;;15.09;56.44;99998.48;153934;1101;103136;-76
2021/06/12 00:44:00;;;;;;;5.05;4.30;;;;;;;15.09;56.79;99987.73;153932;1101;103589;-76
2021/06/12 00:47:05;;;;;;;6.50;4.20;;;;;;;15.08;56.59;99984.19;153942;1101;103193;-77
2021/06/12 00:50:12;;;;;;;8.13;4.60;;;;;;;15.06;56.60;99982.72;153928;1101;103260;-76
2021/06/12 00:53:19;;;;;;;5.90;4.57;;;;;;;15.02;56.82;99984.13;154009;1101;103123;-76
2021/06/12 00:56:23;;;;;;;5.78;4.48;;;;;;;15.02;57.09;99978.75;153970;1096;103187;-77
2021/06/12 00:59:28;;;;;;;5.93;4.43;;;;;;;15.02;57.28;99976.06;153971;1096;103203;-77
2021/06/12 01:02:33;;;;;;;6.60;4.67;;;;;;;14.99;57.18;99982.66;154022;1093;103136;-76
2021/06/12 01:05:37;;;;;;;6.03;4.65;;;;;;;14.98;57.35;99983.66;153968;1101;103268;-77
2021/06/12 01:08:42;;;;;;;5.63;4.60;;;;;;;15.01;57.04;99993.19;153960;1097;103244;-78
2021/06/12 01:11:58;;;;;;;6.55;4.75;;;;;;;15.02;57.16;99981.44;154006;1101;103139;-77
2021/06/12 01:15:06;;;;;;;4.90;3.85;;;;;;;15.04;57.38;99987.45;153967;1094;103586;-77
2021/06/12 01:18:15;;;;;;;5.30;4.50;;;;;;;15.10;57.33;99975.94;153982;1101;103157;-77
2021/06/12 01:21:28;;;;;;;5.70;4.03;;;;;;;15.18;57.55;99975.81;154117;1101;103162;-75
2021/06/12 01:24:59;;;;;;;5.80;4.38;;;;;;;15.23;57.73;99973.41;154012;1101;103194;-74
2021/06/12 01:28:28;;;;;;;6.10;4.68;;;;;;;15.30;57.52;99987.75;153957;1096;103192;-74
2021/06/12 01:31:35;;;;;;;6.70;4.40;;;;;;;15.37;57.85;99981.61;154020;1101;103097;-77
2021/06/12 01:34:42;;;;;;;5.47;4.80;;;;;;;15.38;58.00;99978.73;154153;1097;103204;-75
2021/06/12 01:37:49;;;;;;;7.80;4.93;;;;;;;15.42;57.93;99979.19;154048;1101;103187;-76
2021/06/12 01:40:56;;;;;;;6.40;4.55;;;;;;;15.46;57.84;99970.53;154096;1101;103288;-77
2021/06/12 01:44:02;;;;;;;6.23;4.90;;;;;;;15.49;58.02;99975.54;154041;1096;103195;-77
2021/06/12 01:47:09;;;;;;;7.03;4.80;;;;;;;15.50;58.19;99976.37;154070;1101;103095;-74
2021/06/12 01:50:18;;;;;;;6.90;5.15;;;;;;;15.48;58.17;99962.28;154070;1101;103127;-75
2021/06/12 01:53:30;;;;;;;6.88;4.83;;;;;;;15.49;58.40;99963.93;154015;1096;103320;-75
2021/06/12 01:56:35;;;;;;;6.18;4.90;;;;;;;15.51;58.40;99965.42;154011;1097;103224;-75
2021/06/12 01:59:40;;;;;;;7.38;5.10;;;;;;;15.53;58.59;99959.86;154012;1101;103124;-75
2021/06/12 02:02:47;;;;;;;7.80;4.45;;;;;;;15.53;58.35;99962.55;153934;1101;103196;-75
2021/06/12 02:05:53;;;;;;;6.18;4.25;;;;;;;15.56;59.03;99958.63;154050;1095;103214;-76
2021/06/12 02:08:59;;;;;;;5.13;4.27;;;;;;;15.59;58.64;99964.46;153984;1101;103230;-77
2021/06/12 02:12:07;;;;;;;5.13;4.60;;;;;;;15.66;58.79;99965.33;154002;1101;103129;-75
2021/06/12 02:15:13;;;;;;;5.53;4.60;;;;;;;15.73;59.03;99959.20;153961;1101;103133;-75
2021/06/12 02:18:21;;;;;;;6.45;4.75;;;;;;;15.76;59.13;99956.99;153951;1096;103563;-75
2021/06/12 02:21:27;;;;;;;7.08;5.43;;;;;;;15.81;59.17;99962.59;153956;1096;103131;-76
2021/06/12 02:24:32;;;;;;;6.43;5.00;;;;;;;15.85;59.35;99960.35;154007;1101;103184;-76
2021/06/12 02:27:40;;;;;;;6.88;5.23;;;;;;;15.88;59.09;99958.11;153993;1101;103126;-77
2021/06/12 02:30:49;;;;;;;6.48;5.05;;;;;;;15.89;59.27;99961.63;153993;1095;103200;-76
2021/06/12 02:33:53;;;;;;;8.83;5.10;;;;;;;15.88;59.15;99955.42;153982;1101;103091;-76
2021/06/12 02:36:58;;;;;;;6.15;5.20;;;;;;;15.91;59.40;99956.88;153966;1101;103125;-76
2021/06/12 02:40:03;;;;;;;5.80;4.70;;;;;;;15.93;59.23;99962.07;153981;1101;103286;-76
2021/06/12 02:43:08;;;;;;;5.88;4.73;;;;;;;15.94;59.64;99947.61;154044;1097;103205;-76
2021/06/12 02:46:16;;;;;;;6.93;4.90;;;;;;;15.97;59.65;99961.47;153952;1101;103087;-76
2021/06/12 02:49:24;;;;;;;6.17;4.20;;;;;;;15.98;59.29;99962.33;153957;1096;103136;-75
2021/06/12 02:52:33;;;;;;;4.80;3.90;;;;;;;16.03;59.51;99955.33;154062;1101;103105;-77
2021/06/12 02:55:40;;;;;;;5.97;4.23;;;;;;;16.08;59.52;99952.04;154082;1096;103136;-77
2021/06/12 02:58:45;;;;;;;7.83;5.00;;;;;;;16.11;59.40;99951.66;154091;1101;103132;-78
2021/06/12 03:01:53;;;;;;;6.33;4.90;;;;;;;16.16;59.73;99948.36;154092;1096;103076;-76
2021/06/12 03:05:00;;;;;;;10.28;7.05;;;;;;;16.19;59.75;99942.59;154043;1101;103135;-75
2021/06/12 03:08:06;;;;;;;8.85;6.75;;;;;;;16.20;59.85;99955.84;153999;1101;103157;-75
2021/06/12 03:11:12;;;;;;;7.40;5.53;;;;;;;16.18;59.63;99946.30;154007;1097;103210;-74
2021/06/12 03:14:18;;;;;;;8.55;5.55;;;;;;;16.13;59.76;99954.13;154039;1101;103187;-76
2021/06/12 03:17:24;;;;;;;7.53;5.40;;;;;;;16.09;59.82;99943.77;153967;1095;103195;-76
2021/06/12 03:20:31;;;;;;;6.53;4.98;;;;;;;16.09;59.96;99945.64;153924;1101;103125;-75
2021/06/12 03:23:36;;;;;;;7.77;5.50;;;;;;;16.06;59.71;99941.47;153940;1096;103516;-74
2021/06/12 03:26:40;;;;;;;8.87;5.30;;;;;;;16.05;59.96;99941.66;154020;1096;103490;-78
2021/06/12 03:29:46;;;;;;;7.20;5.15;;;;;;;16.06;60.18;99954.09;154082;1101;103154;-77
2021/06/12 03:32:51;;;;;;;7.90;5.50;;;;;;;16.12;60.41;99956.00;153998;1101;103211;-76
2021/06/12 03:35:56;;;;;;;6.70;5.03;;;;;;;16.36;60.42;99954.71;154106;1096;103218;-76
2021/06/12 03:39:01;;;;;;;5.63;4.87;;;;;;;16.65;60.06;99947.41;154096;1096;103132;-76
2021/06/12 03:42:07;;;;;;;6.80;5.25;;;;;;;16.99;60.02;99946.50;153982;1101;103238;-76
2021/06/12 03:45:15;;;;;;;7.38;5.15;;;;;;;17.40;59.98;99948.28;154040;1101;103129;-75
2021/06/12 03:48:23;;;;;;;7.68;6.30;;;;;;;17.79;59.73;99940.42;153981;1096;103129;-75
2021/06/12 03:51:28;;;;;;;8.73;5.83;;;;;;;18.14;59.37;99941.02;153953;1101;103199;-77
2021/06/12 03:54:33;;;;;;;6.95;5.48;;;;;;;18.48;59.54;99941.79;154001;1101;103102;-77
2021/06/12 03:57:39;;;;;;;7.18;5.70;;;;;;;18.81;59.52;99952.50;153956;1096;103575;-76
2021/06/12 04:00:45;;;;;;;8.38;5.80;;;;;;;19.14;59.27;99939.86;153981;1101;103320;-75
2021/06/12 04:03:50;;;;;;;8.78;5.90;;;;;;;19.50;59.25;99935.68;153929;1101;103244;-76
2021/06/12 04:06:55;;;;;;;7.20;5.98;;;;;;;19.92;59.03;99942.23;153926;1096;103146;-77
2021/06/12 04:10:00;;;;;;;5.73;4.98;;;;;;;20.32;58.67;99939.14;153962;1101;103189;-77
2021/06/12 04:13:04;;;;;;;5.60;5.10;;;;;;;20.65;58.27;99935.25;154021;1095;103385;-77
2021/06/12 04:16:09;;;;;;;5.60;5.10;;;;;;;20.75;58.19;99929.28;154030;1101;103121;-78
2021/06/12 04:19:14;;;;;;;6.57;5.37;;;;;;;20.82;58.19;99934.61;153999;1094;103199;-77
2021/06/12 04:22:18;;;;;;;5.53;5.03;;;;;;;20.99;58.29;99925.60;153919;1095;103147;-78
2021/06/12 04:25:23;;;;;;;6.48;5.13;;;;;;;21.15;58.05;99918.72;153934;1096;103689;-78
2021/06/12 04:28:28;;;;;;;6.38;5.68;;;;;;;21.32;57.93;99929.72;153980;1096;103217;-76
2021/06/12 04:31:32;;;;;;;6.53;5.83;;;;;;;21.46;57.53;99935.83;153995;1096;103203;-79
2021/06/12 04:34:37;;;;;;;6.47;5.60;;;;;;;21.58;57.41;99930.42;153932;1096;103205;-80
2021/06/12 04:37:41;;;;;;;6.93;6.13;;;;;;;21.71;57.06;99932.07;154018;1095;103142;-78
2021/06/12 04:40:46;;;;;;;6.43;5.73;;;;;;;21.79;57.14;99931.75;153987;1095;103203;-78
2021/06/12 04:43:50;;;;;;;8.23;6.03;;;;;;;21.89;56.69;99940.13;153978;1096;103270;-79
2021/06/12 04:46:55;;;;;;;7.45;6.05;;;;;;;21.90;56.59;99940.95;154013;1101;103220;-79
2021/06/12 04:50:00;;;;;;;8.25;6.48;;;;;;;21.75;56.52;99949.58;153957;1101;103199;-81
2021/06/12 04:53:06;;;;;;;6.90;6.20;;;;;;;21.58;56.52;99948.61;154065;1101;103143;-79
2021/06/12 04:56:10;;;;;;;9.97;6.50;;;;;;;21.34;56.49;99951.20;154136;1101;103142;-77
2021/06/12 04:59:15;;;;;;;7.40;6.70;;;;;;;21.22;56.70;99945.75;154103;1101;103172;-79
2021/06/12 05:02:20;;;;;;;8.85;6.45;;;;;;;21.22;56.51;99942.22;154212;1101;103153;-79
2021/06/12 05:05:24;;;;;;;8.30;6.38;;;;;;;21.22;56.71;99947.64;153995;1101;103202;-78
2021/06/12 05:08:29;;;;;;;8.20;6.47;;;;;;;21.23;56.58;99943.85;153905;1101;103140;-79
2021/06/12 05:11:34;;;;;;;8.13;6.53;;;;;;;21.18;56.47;99942.66;153977;1095;103139;-80
2021/06/12 05:14:38;;;;;;;10.28;6.85;;;;;;;21.12;56.49;99932.73;153968;1101;103202;-80
2021/06/12 05:17:43;;;;;;;9.33;7.10;;;;;;;21.19;56.54;99929.95;154118;1101;103129;-77
2021/06/12 05:20:48;;;;;;;9.00;6.50;;;;;;;21.40;56.64;99923.13;154081;1096;103128;-77
2021/06/12 05:23:53;;;;;;;10.37;7.30;;;;;;;21.56;56.34;99917.08;153940;1094;103122;-78
2021/06/12 05:26:59;;;;;;;9.35;6.95;;;;;;;21.71;55.86;99923.92;153952;1101;103136;-77
2021/06/12 05:30:05;;;;;;;9.38;7.05;;;;;;;21.77;56.02;99923.02;153953;1101;103261;-79
2021/06/12 05:33:09;;;;;;;10.68;6.95;;;;;;;21.86;55.76;99923.47;154010;1101;103234;-79
2021/06/12 05:36:14;;;;;;;13.73;6.20;;;;;;;22.01;55.59;99926.55;153989;1101;103118;-79
2021/06/12 05:39:19;;;;;;;10.17;6.40;;;;;;;22.20;55.44;99913.66;154169;1095;103127;-84
2021/06/12 05:42:23;;;;;;;7.77;6.10;;;;;;;22.43;55.20;99917.45;154323;1101;103170;-84
2021/06/12 05:45:28;;;;;;;8.45;5.90;;;;;;;22.45;55.01;99915.31;154860;1101;103219;-81
2021/06/12 05:48:32;;;;;;;5.67;5.03;;;;;;;22.51;55.11;99919.78;154164;1095;103561;-76
2021/06/12 05:51:37;;;;;;;6.57;5.20;;;;;;;22.57;55.47;99916.09;153986;1095;103197;-78
2021/06/12 05:54:41;;;;;;;13.27;5.90;;;;;;;22.59;55.09;99919.40;154035;1101;103142;-78
2021/06/12 05:57:46;;;;;;;8.27;5.30;;;;;;;22.63;54.87;99917.84;154013;1101;103152;-77
2021/06/12 06:00:51;;;;;;;7.37;5.73;;;;;;;22.59;54.68;99911.25;153996;1101;103213;-76
2021/06/12 06:03:56;;;;;;;6.97;5.23;;;;;;;22.55;54.65;99907.36;154008;1096;103132;-78
2021/06/12 06:07:00;;;;;;;9.43;5.73;;;;;;;22.48;54.36;99906.66;153974;1101;103136;-79
2021/06/12 06:10:05;;;;;;;8.53;5.43;;;;;;;22.49;54.56;99906.42;154056;1095;103107;-76
2021/06/12 06:13:10;;;;;;;13.23;6.10;;;;;;;22.45;54.43;99907.16;154094;1101;103620;-79
2021/06/12 06:16:15;;;;;;;7.43;5.70;;;;;;;22.42;54.51;99894.03;153996;1095;103186;-78
2021/06/12 06:19:19;;;;;;;5.50;5.00;;;;;;;22.51;54.78;99892.59;154039;1101;103138;-79
2021/06/12 06:22:24;;;;;;;6.00;4.93;;;;;;;22.63;54.61;99901.53;154829;1096;103153;-80
2021/06/12 06:25:28;;;;;;;9.17;5.47;;;;;;;22.76;54.63;99891.45;155360;1096;103114;-80
2021/06/12 06:28:33;;;;;;;5.93;5.43;;;;;;;22.84;54.26;99891.06;155374;1101;103247;-80
2021/06/12 06:31:37;;;;;;;7.27;5.67;;;;;;;22.98;54.08;99900.59;155196;1096;103393;-80
2021/06/12 06:34:42;;;;;;;5.73;5.17;;;;;;;23.12;53.65;99893.80;155252;1101;103129;-80
2021/06/12 06:37:48;;;;;;;5.77;4.70;;;;;;;23.24;53.44;99893.73;155545;1096;103567;-80
2021/06/12 06:40:52;;;;;;;9.07;4.80;;;;;;;23.26;53.08;99890.77;155223;1096;103154;-80
2021/06/12 06:43:57;;;;;;;5.28;4.78;;;;;;;23.32;53.47;99889.78;154159;1101;103208;-79
2021/06/12 06:47:01;;;;;;;5.00;4.53;;;;;;;23.56;53.28;99895.06;154087;1095;103225;-80
2021/06/12 06:50:08;;;;;;;4.93;4.43;;;;;;;23.79;53.00;99897.67;154110;1101;103107;-81
2021/06/12 06:53:12;;;;;;;5.28;4.10;;;;;;;23.98;52.99;99886.47;154203;1096;103151;-82
2021/06/12 06:56:17;;;;;;;4.65;4.03;;;;;;;24.03;52.23;99889.28;154031;1101;103129;-80
2021/06/12 06:59:22;;;;;;;5.30;3.50;;;;;;;24.20;51.94;99886.52;154048;1101;103128;-81
2021/06/12 07:02:26;;;;;;;3.70;3.40;;;;;;;24.38;52.25;99878.02;154041;1101;103192;-86
2021/06/12 07:05:31;;;;;;;4.60;3.60;;;;;;;24.56;51.89;99887.83;154063;1101;103200;-81
2021/06/12 07:08:36;;;;;;;4.43;3.70;;;;;;;24.67;51.31;99878.69;154056;1101;103201;-79
2021/06/12 07:11:40;;;;;;;4.13;3.60;;;;;;;24.56;50.37;99874.20;154133;1101;103658;-79
2021/06/12 07:14:45;;;;;;;3.90;3.45;;;;;;;24.49;51.51;99862.62;154167;1095;103192;-82
2021/06/12 07:17:49;;;;;;;4.00;3.23;;;;;;;24.46;51.38;99869.41;154109;1101;103210;-82
2021/06/12 07:20:54;;;;;;;6.10;3.80;;;;;;;24.56;51.30;99866.02;154197;1096;103196;-83
2021/06/12 07:23:58;;;;;;;5.77;3.80;;;;;;;24.73;51.13;99846.83;154128;1095;103199;-80
2021/06/12 07:27:03;;;;;;;5.23;3.98;;;;;;;24.92;50.22;99850.00;154079;1096;103623;-82
2021/06/12 07:30:09;;;;;;;4.87;3.50;;;;;;;24.98;50.36;99854.45;154140;1101;103196;-83
2021/06/12 07:33:15;;;;;;;5.00;3.60;;;;;;;25.07;50.25;99855.61;154217;1095;103231;-82
2021/06/12 07:36:21;;;;;;;3.88;3.08;;;;;;;25.25;49.99;99846.27;154110;1101;103126;-83
2021/06/12 07:39:27;;;;;;;6.17;3.63;;;;;;;25.38;50.13;99847.70;154174;1096;103151;-80
2021/06/12 07:42:32;;;;;;;6.00;3.70;;;;;;;25.59;49.95;99848.69;154103;1101;103553;-81
2021/06/12 07:45:36;;;;;;;4.78;3.58;;;;;;;25.78;49.49;99848.27;154208;1101;103256;-80
2021/06/12 07:48:41;;;;;;;10.43;4.05;;;;;;;25.88;48.61;99833.84;154128;1096;103248;-81
2021/06/12 07:51:45;;;;;;;3.98;3.58;;;;;;;25.85;48.61;99843.41;154103;1101;103131;-81
2021/06/12 07:54:50;;;;;;;4.10;3.40;;;;;;;25.87;48.68;99838.50;154160;1101;103127;-82
2021/06/12 07:57:56;;;;;;;4.55;3.65;;;;;;;25.99;48.45;99827.38;154177;1101;103245;-82
2021/06/12 08:01:01;;;;;;;3.83;3.43;;;;;;;25.99;44.54;99824.64;154219;1096;103232;-79
2021/06/12 08:04:06;;;;;;;3.97;3.50;;;;;;;26.07;47.97;99818.66;154155;1101;103213;-83
2021/06/12 08:07:10;;;;;;;4.98;3.73;;;;;;;26.33;47.13;99814.13;154280;1101;103589;-86
2021/06/12 08:10:15;;;;;;;4.43;3.40;;;;;;;26.57;46.51;99806.25;154332;1096;103227;-85
2021/06/12 08:13:19;;;;;;;4.27;3.50;;;;;;;26.51;45.54;99804.59;154299;1101;103196;-80
2021/06/12 08:16:24;;;;;;;7.03;3.50;;;;;;;26.54;46.47;99812.28;153945;1096;103128;-77
2021/06/12 08:19:29;;;;;;;5.97;3.17;;;;;;;26.54;45.52;99805.96;153953;1101;103271;-78
2021/06/12 08:22:33;;;;;;;3.30;3.00;;;;;;;26.50;45.69;99813.06;154015;1096;103136;-75
2021/06/12 08:25:38;;;;;;;3.10;2.80;;;;;;;26.47;43.55;99808.97;153990;1101;103198;-78
2021/06/12 08:28:42;;;;;;;3.20;2.90;;;;;;;26.38;44.91;99816.05;153962;1096;103132;-75
2021/06/12 08:31:47;;;;;;;4.63;3.40;;;;;;;26.31;44.59;99821.78;154000;1101;103196;-73
2021/06/12 08:34:51;;;;;;;3.40;3.07;;;;;;;26.22;42.50;99812.44;154132;1101;103373;-74
2021/06/12 08:37:56;;;;;;;6.30;3.15;;;;;;;26.07;44.80;99806.91;153978;1101;103196;-76
2021/06/12 08:41:01;;;;;;;3.53;3.23;;;;;;;26.16;45.04;99797.92;153891;1101;103125;-77
2021/06/12 08:44:05;;;;;;;3.50;3.20;;;;;;;26.25;45.05;99795.48;153927;1096;103201;-76
2021/06/12 08:47:11;;;;;;;4.03;3.63;;;;;;;26.32;44.17;99795.25;153945;1101;103215;-77
2021/06/12 08:50:16;;;;;;;5.43;3.43;;;;;;;26.44;44.70;99798.55;153974;1096;103261;-76
2021/06/12 08:53:21;;;;;;;13.80;4.37;;;;;;;26.57;44.05;99800.77;153975;1101;103128;-76
2021/06/12 08:56:25;;;;;;;4.45;3.38;;;;;;;26.66;44.49;99792.90;153944;1101;103135;-77
2021/06/12 08:59:35;;;;;;;3.60;3.30;;;;;;;26.82;44.38;99794.55;154014;1096;103199;-78
2021/06/12 09:03:14;;;;;;;3.50;3.20;;;;;;;26.95;44.33;99784.98;153964;1101;103234;-76
2021/06/12 09:06:22;;;;;;;8.10;4.20;;;;;;;27.05;44.04;99775.95;154000;1101;103198;-76
2021/06/12 09:09:44;;;;;;;5.03;3.57;;;;;;;27.08;44.22;99771.83;153990;1101;103136;-77
2021/06/12 09:12:49;;;;;;;4.53;3.70;;;;;;;27.03;44.17;99769.92;153938;1094;103136;-76
2021/06/12 09:15:57;;;;;;;4.10;3.70;;;;;;;26.86;43.48;99772.93;153959;1101;103141;-77
2021/06/12 09:19:07;;;;;;;4.43;3.13;;;;;;;26.69;43.86;99777.84;153941;1101;103227;-77
2021/06/12 09:22:11;;;;;;;3.30;3.00;;;;;;;26.49;42.53;99773.14;153937;1094;103173;-77
2021/06/12 09:25:38;;;;;;;5.25;2.58;;;;;;;26.33;41.83;99762.16;153997;1096;103227;-77
2021/06/12 09:29:04;;;;;;;5.67;3.43;;;;;;;26.40;43.02;99767.36;153958;1096;103133;-76
2021/06/12 09:32:14;;;;;;;3.68;2.58;;;;;;;26.63;43.47;99764.14;153881;1101;103132;-77
2021/06/12 09:35:29;;;;;;;3.20;2.87;;;;;;;26.86;43.04;99758.43;153975;1101;103484;-76
2021/06/12 09:38:36;;;;;;;5.38;2.88;;;;;;;26.95;42.98;99757.61;153937;1095;103262;-76
2021/06/12 09:41:43;;;;;;;4.50;3.17;;;;;;;26.96;40.85;99756.49;153999;1101;103199;-77
2021/06/12 09:44:49;;;;;;;3.68;2.78;;;;;;;26.73;41.95;99746.09;153964;1096;103216;-76
2021/06/12 09:48:09;;;;;;;4.13;3.00;;;;;;;26.86;41.26;99744.74;153975;1095;103216;-76
2021/06/12 09:51:15;;;;;;;3.80;2.50;;;;;;;27.05;41.05;99745.83;154006;1101;103240;-77
2021/06/12 09:54:33;;;;;;;4.00;2.25;;;;;;;27.14;40.85;99732.41;153979;1101;103203;-77
2021/06/12 09:57:47;;;;;;;3.23;2.17;;;;;;;27.19;40.70;99733.20;153979;1101;103195;-76
2021/06/12 10:00:52;;;;;;;2.50;2.30;;;;;;;27.17;40.88;99724.44;154017;1095;103136;-77
2021/06/12 10:04:16;;;;;;;3.35;2.50;;;;;;;27.28;41.13;99714.33;154009;1097;103285;-76
2021/06/12 10:07:21;;;;;;;2.80;2.60;;;;;;;27.31;40.88;99718.42;153977;1101;103253;-76
2021/06/12 10:10:26;;;;;;;3.00;2.80;;;;;;;27.29;40.55;99721.47;153942;1093;103568;-76
2021/06/12 10:13:31;;;;;;;3.15;2.55;;;;;;;27.31;41.17;99713.78;154115;1101;103198;-76
2021/06/12 10:16:41;;;;;;;3.97;2.57;;;;;;;27.37;40.79;99712.67;154038;1094;103197;-76
2021/06/12 10:19:50;;;;;;;6.80;2.80;;;;;;;27.40;39.35;99717.58;153991;1101;103196;-76
2021/06/12 10:22:56;;;;;;;3.85;2.70;;;;;;;27.41;40.72;99708.27;154028;1097;103510;-77
2021/06/12 10:26:01;;;;;;;2.85;2.65;;;;;;;27.62;40.25;99710.96;154001;1097;103207;-76
2021/06/12 10:29:07;;;;;;;2.80;2.20;;;;;;;27.77;39.39;99707.31;153986;1101;103195;-76
2021/06/12 10:32:15;;;;;;;2.23;2.00;;;;;;;27.80;39.13;99699.36;153992;1095;103195;-74
2021/06/12 10:35:21;;;;;;;2.40;1.60;;;;;;;27.90;39.97;99694.96;153978;1096;104024;-75
2021/06/12 10:38:32;;;;;;;2.17;2.00;;;;;;;27.86;38.29;99699.34;153959;1101;103213;-75
2021/06/12 10:41:37;;;;;;;2.20;2.00;;;;;;;27.77;38.49;99688.97;154001;1096;103196;-76
2021/06/12 10:44:42;;;;;;;3.05;2.00;;;;;;;27.51;38.77;99679.20;154000;1101;103116;-75
2021/06/12 10:47:49;;;;;;;2.20;2.00;;;;;;;27.47;39.16;99675.39;153989;1101;103216;-75
2021/06/12 10:50:53;;;;;;;5.10;2.17;;;;;;;27.64;38.82;99667.64;153943;1101;103110;-75
2021/06/12 10:54:22;;;;;;;2.15;2.05;;;;;;;27.70;38.88;99660.22;153995;1101;103250;-76
2021/06/12 10:57:38;;;;;;;3.45;2.10;;;;;;;27.65;38.34;99647.34;153949;1101;103189;-75
2021/06/12 11:01:12;;;;;;;2.43;2.00;;;;;;;27.88;38.95;99636.81;153979;1101;103194;-76
2021/06/12 11:04:52;;;;;;;2.60;2.27;;;;;;;28.03;38.68;99631.27;154000;1101;103195;-75
2021/06/12 11:08:16;;;;;;;2.40;2.20;;;;;;;28.09;38.80;99624.64;154008;1095;103089;-75
2021/06/12 11:11:34;;;;;;;3.90;2.50;;;;;;;28.16;38.56;99618.84;154043;1101;103237;-75
2021/06/12 11:14:38;;;;;;;3.07;2.60;;;;;;;28.25;38.44;99608.06;153988;1096;103250;-75
2021/06/12 11:17:45;;;;;;;2.60;2.40;;;;;;;28.33;38.42;99604.70;153986;1101;103198;-75
2021/06/12 11:21:04;;;;;;;2.60;2.40;;;;;;;28.37;38.76;99597.56;154069;1093;103219;-75
2021/06/12 11:24:29;;;;;;;3.20;2.20;;;;;;;28.37;37.22;99586.58;154010;1101;103754;-76
2021/06/12 11:27:35;;;;;;;2.63;2.43;;;;;;;28.17;37.67;99571.09;154007;1097;103194;-75
2021/06/12 11:30:40;;;;;;;4.00;2.57;;;;;;;28.35;37.91;99559.42;153935;1101;103264;-75
2021/06/12 11:34:21;;;;;;;2.77;2.53;;;;;;;28.52;37.79;99569.17;153941;1101;103146;-75
2021/06/12 11:37:27;;;;;;;3.67;2.37;;;;;;;28.57;37.90;99575.43;154009;1095;103159;-75
2021/06/12 11:40:32;;;;;;;4.03;2.97;;;;;;;28.49;37.55;99561.50;153987;1093;104028;-75
2021/06/12 11:43:39;;;;;;;3.40;2.83;;;;;;;28.38;38.24;99558.83;154008;1093;103166;-76
2021/06/12 11:46:44;;;;;;;2.75;2.43;;;;;;;28.33;37.94;99563.55;153940;1094;103176;-75
2021/06/12 11:49:53;;;;;;;4.33;3.00;;;;;;;28.35;37.89;99566.81;154029;1097;103247;-75
2021/06/12 11:52:58;;;;;;;3.70;2.60;;;;;;;28.32;38.08;99556.44;154006;1097;103117;-75
2021/06/12 11:56:03;;;;;;;2.57;2.37;;;;;;;28.21;38.34;99555.70;154067;1101;103572;-75
2021/06/12 11:59:10;;;;;;;2.98;2.50;;;;;;;28.05;38.28;99557.75;153995;1097;103240;-75
2021/06/12 12:02:14;;;;;;;3.48;3.18;;;;;;;27.77;38.07;99546.42;153977;1101;103216;-75
2021/06/12 12:05:19;;;;;;;4.10;3.70;;;;;;;27.40;38.17;99557.86;153936;1101;103132;-75
2021/06/12 12:08:24;;;;;;;5.37;3.27;;;;;;;27.01;38.80;99562.09;153946;1101;103142;-75
2021/06/12 12:11:29;;;;;;;6.50;4.40;;;;;;;26.67;38.82;99622.12;153903;1101;103129;-75
2021/06/12 12:14:36;;;;;;;10.03;4.20;;;;;;;25.74;41.26;99612.16;153981;1101;103257;-75
2021/06/12 12:17:41;;;;;;;8.80;3.90;;;;;;;24.64;45.78;99633.67;154160;1101;103181;-75
2021/06/12 12:20:49;;;;;;;16.20;3.90;;;;;;;23.68;46.49;99612.55;153999;1101;103208;-76
2021/06/12 12:23:58;;;;;;;9.20;5.50;;;;;;;22.79;51.12;99640.71;153995;1101;103123;-76
2021/06/12 12:27:07;;;;;;;6.03;5.40;;;;;;;22.15;49.82;99633.66;153964;1093;104123;-76
2021/06/12 12:30:13;;;;;;;6.67;5.93;;;;;;;21.67;57.51;99641.20;154032;1101;103568;-76
2021/06/12 12:33:19;;;;;;;9.10;6.20;;;;;;;21.16;52.89;99640.91;154001;1096;103248;-76
2021/06/12 12:36:25;;;;;;;7.20;5.35;;;;;;;20.84;53.08;99645.06;154146;1096;103623;-77
2021/06/12 12:39:40;;;;;;;7.43;5.63;;;;;;;20.70;55.91;99656.13;154049;1093;103100;-78
2021/06/12 12:42:45;;;;;;;6.97;5.90;;;;;;;20.54;53.31;99645.95;154005;1101;103134;-78
2021/06/12 12:45:54;;;;;;;7.10;6.40;;;;;;;20.46;53.93;99648.98;153929;1094;103343;-78
2021/06/12 12:48:58;;;;;;;6.75;6.13;;;;;;;20.50;56.25;99634.75;154005;1101;103184;-77
2021/06/12 12:52:05;;;;;;;7.27;6.43;;;;;;;20.58;53.46;99628.16;153954;1097;103192;-79
2021/06/12 12:55:12;;;;;;;7.95;7.15;;;;;;;20.69;54.59;99621.96;153972;1101;103125;-79
2021/06/12 12:58:25;;;;;;;8.10;6.80;;;;;;;20.68;55.10;99608.64;153932;1101;103503;-78
2021/06/12 13:01:29;;;;;;;8.50;7.70;;;;;;;20.73;54.45;99604.16;154009;1096;103200;-78
2021/06/12 13:04:37;;;;;;;8.93;7.97;;;;;;;20.83;55.90;99602.75;153938;1101;103231;-79
2021/06/12 13:07:42;;;;;;;10.63;8.80;;;;;;;20.93;54.92;99594.84;153986;1096;103131;-78
2021/06/12 13:10:48;;;;;;;14.73;13.18;;;;;;;21.01;57.38;99596.36;153892;1101;103127;-78
2021/06/12 13:13:53;;;;;;;12.37;10.33;;;;;;;20.98;56.93;99600.38;153942;1096;103195;-79
2021/06/12 13:17:04;;;;;;;9.08;8.18;;;;;;;20.95;58.61;99608.98;153953;1097;103147;-78
2021/06/12 13:20:12;;;;;;;8.63;7.73;;;;;;;20.96;58.70;99599.80;153972;1094;103436;-78
2021/06/12 13:23:27;;;;;;;8.40;7.60;;;;;;;20.97;58.15;99593.30;154040;1097;103136;-78
2021/06/12 13:26:41;;;;;;;8.03;7.23;;;;;;;20.95;58.10;99584.57;154003;1101;103157;-77
2021/06/12 13:29:46;;;;;;;8.50;7.28;;;;;;;20.94;58.94;99585.66;153928;1097;103134;-78
2021/06/12 13:33:00;;;;;;;9.17;7.97;;;;;;;20.96;59.16;99587.05;154022;1101;103195;-77
2021/06/12 13:36:05;;;;;;;8.47;7.57;;;;;;;20.94;59.90;99586.47;154033;1101;103219;-78
2021/06/12 13:39:09;;;;;;;9.03;8.13;;;;;;;20.92;60.15;99585.88;153967;1101;103107;-78
2021/06/12 13:42:18;;;;;;;9.03;7.53;;;;;;;20.87;58.25;99579.52;153928;1101;103123;-78
2021/06/12 13:45:23;;;;;;;7.97;6.93;;;;;;;20.89;59.32;99577.39;153968;1093;103145;-78
2021/06/12 13:48:29;;;;;;;7.57;6.70;;;;;;;20.87;59.11;99582.23;153975;1093;103128;-78
2021/06/12 13:51:34;;;;;;;8.27;7.40;;;;;;;20.92;59.72;99577.75;153979;1093;103247;-77
2021/06/12 13:54:39;;;;;;;8.35;7.50;;;;;;;21.04;59.46;99579.63;154014;1100;103576;-76
2021/06/12 13:57:44;;;;;;;9.23;8.23;;;;;;;21.10;58.78;99573.23;153949;1093;103499;-78
2021/06/12 14:00:48;;;;;;;8.75;7.95;;;;;;;21.12;59.24;99565.68;154039;1101;103128;-76
2021/06/12 14:03:53;;;;;;;10.07;8.10;;;;;;;21.22;60.32;99560.45;154024;1095;103557;-77
2021/06/12 14:06:57;;;;;;;7.75;6.98;;;;;;;21.29;59.38;99557.63;153969;1097;103254;-77
2021/06/12 14:10:02;;;;;;;8.95;8.05;;;;;;;21.36;59.42;99555.57;153997;1101;103190;-78
2021/06/12 14:13:07;;;;;;;9.20;8.25;;;;;;;21.44;59.95;99549.81;153907;1101;103193;-78
2021/06/12 14:16:12;;;;;;;8.77;7.87;;;;;;;21.46;61.69;99538.69;153967;1093;103491;-78
2021/06/12 14:19:16;;;;;;;8.93;8.03;;;;;;;21.41;60.01;99536.69;154045;1095;103108;-77